Weather at Port Colborne Airport

Public forecast

Using degrees Celsius for public forecast. Weather courtesy of forecast.io.

Closest aviation weather report (METAR) to Port Colborne Airport

Report is more than 6 hours old.

Closest report is Niagara District Airport, 20.5 nm (37.9 km) NNE.

2022/11/14 15:00 (retrieved 2 years ago)

CYSN 141500Z 33007KT 260V360 15SM FEW040 SCT060 BKN220 03/M05 A3038 RMK SC2SC2CC3 SLP292

Closest aviation forecast (TAF) to Port Colborne Airport

Forecast is more than 12 hours old.

Closest forecast is Niagara District Airport, 20.5 nm (37.9 km) NNE.

2023/02/22 20:00 (retrieved 1 year ago)

TAF CYSN 221940Z 2220/2302 06015G25KT 2SM -SN BKN015 OVC025 TEMPO 2220/2222 3/4SM -SN VV008 FM222200 07015G25KT 1/2SM SN VV006 FM230100 07020G30KT 3/4SM -PLSN VV008 RMK NXT FCST BY 231400Z